Time;durP1;ratioP1;P1;durP2;ratioP2;P2;SDS_P1;SDS_P2;PMS_P1;PMS_P2;Temp;Humidity;BMP_temperature;BMP_pressure;BME280_temperature;BME280_humidity;BME280_pressure;Samples;Min_cycle;Max_cycle;Signal;HPM_P1;HPM_P2
2023/05/15 00:02:18;;;;;;;43.63;24.67;;;13.00;99.90;;;;;;6247078;22;20335;-82
2023/05/15 00:04:43;;;;;;;44.50;23.05;;;13.10;99.90;;;;;;6246740;22;20077;-83
2023/05/15 00:07:09;;;;;;;48.25;25.52;;;13.10;99.90;;;;;;6247273;22;20024;-85
2023/05/15 00:09:35;;;;;;;43.63;24.45;;;13.10;99.90;;;;;;6247337;22;20023;-85
2023/05/15 00:12:01;;;;;;;49.05;25.15;;;13.10;99.90;;;;;;6274463;22;20471;-83
2023/05/15 00:14:27;;;;;;;47.03;25.27;;;13.10;99.90;;;;;;6246840;22;20074;-83
2023/05/15 00:16:53;;;;;;;51.97;25.70;;;13.10;99.90;;;;;;6274626;22;20019;-83
2023/05/15 00:19:19;;;;;;;53.50;27.27;;;13.10;99.90;;;;;;6244890;22;20548;-83
2023/05/15 00:21:44;;;;;;;48.92;25.52;;;13.10;99.90;;;;;;6246879;22;20016;-83
2023/05/15 00:24:10;;;;;;;46.22;25.25;;;13.10;99.90;;;;;;6273944;22;20016;-85
2023/05/15 00:26:36;;;;;;;49.10;25.73;;;13.10;99.90;;;;;;6274587;22;20015;-83
2023/05/15 00:29:02;;;;;;;48.72;25.70;;;13.10;99.90;;;;;;6245696;22;20024;-75
2023/05/15 00:31:27;;;;;;;48.00;25.80;;;12.90;99.90;;;;;;6245266;22;20046;-76
2023/05/15 00:33:53;;;;;;;49.72;25.42;;;13.00;99.90;;;;;;6219960;22;20083;-73
2023/05/15 00:36:20;;;;;;;49.55;23.70;;;13.00;99.90;;;;;;6272802;22;20024;-73
2023/05/15 00:38:46;;;;;;;43.83;24.75;;;12.90;99.90;;;;;;6272254;22;20031;-74
2023/05/15 00:41:14;;;;;;;46.50;24.60;;;12.80;99.90;;;;;;6272394;22;20039;-73
2023/05/15 00:43:41;;;;;;;49.03;25.95;;;12.80;99.90;;;;;;6245360;22;20016;-74
2023/05/15 00:46:08;;;;;;;49.50;27.38;;;12.90;99.90;;;;;;6273612;22;20098;-84
2023/05/15 00:48:34;;;;;;;48.15;25.38;;;12.80;99.90;;;;;;6246626;22;20363;-83
2023/05/15 00:51:00;;;;;;;52.17;26.05;;;12.80;99.90;;;;;;6246033;22;20020;-83
2023/05/15 00:53:26;;;;;;;51.03;27.15;;;12.80;99.90;;;;;;6273904;22;20023;-83
2023/05/15 00:55:56;;;;;;;51.13;26.85;;;12.80;99.90;;;;;;6273465;22;20016;-84
2023/05/15 00:58:23;;;;;;;53.17;27.48;;;12.80;99.90;;;;;;6273730;22;20020;-84
2023/05/15 01:00:49;;;;;;;49.85;26.10;;;12.80;99.90;;;;;;6245850;22;20030;-83
2023/05/15 01:03:16;;;;;;;51.58;27.42;;;12.80;99.90;;;;;;6221092;22;20035;-84
2023/05/15 01:05:42;;;;;;;51.67;26.95;;;12.70;99.90;;;;;;6247303;22;20028;-83
2023/05/15 01:08:15;;;;;;;48.30;24.88;;;12.70;99.90;;;;;;6246307;22;20026;-83
2023/05/15 01:10:41;;;;;;;;;;;12.70;99.90;;;;;;6247348;22;20019;-84
2023/05/15 01:13:09;;;;;;;48.05;25.15;;;12.70;99.90;;;;;;6246284;22;19919;-84
2023/05/15 01:15:35;;;;;;;54.28;27.65;;;12.70;99.90;;;;;;6246080;22;20016;-84
2023/05/15 01:18:02;;;;;;;53.15;27.48;;;12.70;99.90;;;;;;6246321;22;20050;-83
2023/05/15 01:20:30;;;;;;;48.83;24.75;;;12.70;99.90;;;;;;6273419;22;20023;-83
2023/05/15 01:23:17;;;;;;;51.33;26.48;;;12.60;99.90;;;;;;6272676;22;20020;-68
2023/05/15 01:25:52;;;;;;;43.38;23.52;;;12.70;99.90;;;;;;6271641;22;20313;-67
2023/05/15 01:28:22;;;;;;;49.25;26.88;;;12.70;99.90;;;;;;6272030;22;20046;-67
2023/05/15 01:30:51;;;;;;;44.35;23.92;;;12.60;99.90;;;;;;6271796;22;20027;-68
2023/05/15 01:33:27;;;;;;;53.17;26.50;;;12.50;99.90;;;;;;6272198;22;20031;-67
2023/05/15 01:36:13;;;;;;;47.15;25.50;;;12.60;99.90;;;;;;6244203;22;20454;-67
2023/05/15 01:38:47;;;;;;;46.78;24.67;;;12.60;99.90;;;;;;6271852;22;20016;-67
2023/05/15 01:41:22;;;;;;;46.15;24.83;;;12.60;99.90;;;;;;6244459;22;20027;-67
2023/05/15 01:43:54;;;;;;;44.10;23.63;;;12.50;99.90;;;;;;6272265;22;20020;-67
2023/05/15 01:46:22;;;;;;;49.88;26.98;;;12.50;99.90;;;;;;6244987;22;20023;-67
2023/05/15 01:48:49;;;;;;;44.50;24.30;;;12.40;99.90;;;;;;6244729;22;20028;-68
2023/05/15 01:51:16;;;;;;;48.47;25.15;;;12.50;99.90;;;;;;6273202;22;20081;-68
2023/05/15 01:53:45;;;;;;;43.92;25.00;;;12.50;99.90;;;;;;6245126;22;20019;-67
2023/05/15 01:56:14;;;;;;;42.50;22.90;;;12.50;99.90;;;;;;6272253;22;20008;-67
2023/05/15 01:58:41;;;;;;;38.15;21.15;;;12.50;99.90;;;;;;6244563;22;20383;-67
2023/05/15 02:01:09;;;;;;;35.42;20.73;;;12.50;99.90;;;;;;6272151;22;20098;-67
2023/05/15 02:03:36;;;;;;;38.17;20.98;;;12.40;99.90;;;;;;6244624;22;20027;-67
2023/05/15 02:06:04;;;;;;;36.25;20.25;;;12.40;99.90;;;;;;6244501;22;20019;-67
2023/05/15 02:08:31;;;;;;;36.50;21.15;;;12.40;99.90;;;;;;6271709;22;20031;-67
2023/05/15 02:11:00;;;;;;;34.15;20.73;;;12.40;99.90;;;;;;6270336;22;20012;-68
2023/05/15 02:13:27;;;;;;;38.97;20.50;;;12.40;99.90;;;;;;6270702;22;20028;-68
2023/05/15 02:15:53;;;;;;;36.35;19.75;;;12.40;99.90;;;;;;6243925;22;20031;-68
2023/05/15 02:18:19;;;;;;;34.53;19.52;;;12.30;99.90;;;;;;6271231;22;20435;-68
2023/05/15 02:20:45;;;;;;;34.50;20.25;;;12.20;99.90;;;;;;6244011;22;20020;-68
2023/05/15 02:23:10;;;;;;;33.65;19.25;;;12.20;99.90;;;;;;6271516;22;20023;-68
2023/05/15 02:25:42;;;;;;;35.35;20.85;;;12.20;99.90;;;;;;6271493;22;20015;-68
2023/05/15 02:28:31;;;;;;;35.47;19.73;;;12.20;99.90;;;;;;6270899;22;20023;-68
2023/05/15 02:31:33;;;;;;;34.58;18.83;;;12.20;99.90;;;;;;6270932;22;20077;-68
2023/05/15 02:34:10;;;;;;;30.90;18.52;;;12.30;99.90;;;;;;6254807;22;20412;-68
2023/05/15 02:36:40;;;;;;;34.70;18.77;;;12.20;99.90;;;;;;6271011;22;20019;-68
2023/05/15 02:39:08;;;;;;;36.10;20.83;;;12.10;99.90;;;;;;6271695;22;20012;-68
2023/05/15 02:41:36;;;;;;;35.35;20.77;;;12.10;99.90;;;;;;6271534;22;20054;-68
2023/05/15 02:44:03;;;;;;;39.03;21.63;;;12.20;99.90;;;;;;6218973;22;20026;-69
2023/05/15 02:46:29;;;;;;;36.55;22.02;;;12.00;99.90;;;;;;6271714;22;20023;-69
2023/05/15 02:48:55;;;;;;;39.08;21.98;;;12.10;99.90;;;;;;6271288;22;20324;-68
2023/05/15 02:51:21;;;;;;;36.88;21.15;;;12.10;99.90;;;;;;6271048;22;20435;-68
2023/05/15 02:53:47;;;;;;;39.35;22.52;;;12.10;99.90;;;;;;6271749;22;20110;-69
2023/05/15 02:56:13;;;;;;;34.63;19.70;;;12.10;99.90;;;;;;6243530;22;20347;-68
2023/05/15 02:58:39;;;;;;;37.38;21.58;;;12.10;99.90;;;;;;6243823;22;20448;-74
2023/05/15 03:01:05;;;;;;;38.17;20.45;;;12.10;99.90;;;;;;6271311;22;20074;-74
2023/05/15 03:03:31;;;;;;;40.03;20.27;;;12.00;99.90;;;;;;6243759;22;20024;-74
2023/05/15 03:05:59;;;;;;;35.22;19.55;;;12.10;99.90;;;;;;6244625;22;20016;-74
2023/05/15 03:08:25;;;;;;;34.92;19.52;;;11.80;99.90;;;;;;6218663;22;20055;-74
2023/05/15 03:10:51;;;;;;;42.05;21.30;;;11.80;99.90;;;;;;6271786;22;20026;-74
2023/05/15 03:13:16;;;;;;;34.15;20.98;;;11.80;99.90;;;;;;6243842;22;20055;-75
2023/05/15 03:15:45;;;;;;;35.60;19.63;;;11.80;99.90;;;;;;6246151;22;20028;-74
2023/05/15 03:18:11;;;;;;;33.65;20.38;;;11.70;99.90;;;;;;6245208;22;20043;-74
2023/05/15 03:20:37;;;;;;;31.42;18.50;;;11.80;99.90;;;;;;6245871;22;20054;-74
2023/05/15 03:23:02;;;;;;;36.25;20.80;;;11.80;99.90;;;;;;6273174;22;20026;-74
2023/05/15 03:25:28;;;;;;;32.67;19.63;;;11.90;99.90;;;;;;6246109;22;20027;-74
2023/05/15 03:27:54;;;;;;;33.40;20.95;;;11.90;99.90;;;;;;6246551;22;20023;-74
2023/05/15 03:30:19;;;;;;;34.40;20.58;;;11.90;99.90;;;;;;6245714;22;20119;-74
2023/05/15 03:32:45;;;;;;;32.65;19.23;;;11.90;99.90;;;;;;6273228;22;20020;-74
2023/05/15 03:35:11;;;;;;;35.20;19.27;;;11.90;99.90;;;;;;6273372;22;20019;-74
2023/05/15 03:37:37;;;;;;;33.40;19.27;;;11.90;99.90;;;;;;6245421;22;20023;-68
2023/05/15 03:40:03;;;;;;;32.78;19.65;;;11.90;99.90;;;;;;6273058;22;20043;-69
2023/05/15 03:42:29;;;;;;;32.40;18.92;;;11.90;99.90;;;;;;6272747;22;20019;-69
2023/05/15 03:44:55;;;;;;;33.13;20.17;;;11.90;99.90;;;;;;6245535;22;20023;-68
2023/05/15 03:47:21;;;;;;;31.67;18.90;;;12.00;99.90;;;;;;6272451;22;20061;-68
2023/05/15 03:49:47;;;;;;;34.03;19.63;;;12.00;99.90;;;;;;6245126;22;20020;-69
2023/05/15 03:52:13;;;;;;;34.95;18.73;;;11.90;99.90;;;;;;6272379;22;20087;-68
2023/05/15 03:54:39;;;;;;;33.75;20.05;;;11.70;99.90;;;;;;6273226;22;20016;-69
2023/05/15 03:57:05;;;;;;;32.40;18.83;;;11.70;99.90;;;;;;6245364;22;20046;-68
2023/05/15 03:59:31;;;;;;;34.75;19.60;;;11.60;99.90;;;;;;6272759;22;20112;-68
2023/05/15 04:01:56;;;;;;;34.40;19.88;;;11.70;99.90;;;;;;6272602;22;20482;-68
2023/05/15 04:04:22;;;;;;;31.20;19.30;;;11.70;99.90;;;;;;6245306;22;20024;-69
2023/05/15 04:06:49;;;;;;;30.77;19.33;;;11.80;99.90;;;;;;6272181;22;20158;-68
2023/05/15 04:09:15;;;;;;;30.67;19.20;;;11.80;99.90;;;;;;6272411;22;20012;-68
2023/05/15 04:11:40;;;;;;;31.33;19.15;;;11.70;99.90;;;;;;6270954;22;20390;-68
2023/05/15 04:14:06;;;;;;;34.42;19.83;;;11.60;99.90;;;;;;6245353;22;20471;-68
2023/05/15 04:16:32;;;;;;;36.00;20.40;;;11.70;99.90;;;;;;6245185;22;20055;-68
2023/05/15 04:18:57;;;;;;;37.75;20.60;;;11.70;99.90;;;;;;6220039;22;20027;-68
2023/05/15 04:21:23;;;;;;;36.53;20.77;;;11.70;99.90;;;;;;6245498;22;20020;-68
2023/05/15 04:23:49;;;;;;;38.35;20.17;;;11.70;99.90;;;;;;6245013;22;20027;-68
2023/05/15 04:26:15;;;;;;;44.72;22.67;;;11.70;99.90;;;;;;6244965;22;20024;-68
2023/05/15 04:28:41;;;;;;;38.17;21.40;;;11.70;99.90;;;;;;6219824;22;20055;-68
2023/05/15 04:31:06;;;;;;;39.85;20.42;;;11.80;99.90;;;;;;6244339;22;20024;-68
2023/05/15 04:33:32;;;;;;;37.05;20.40;;;11.80;99.90;;;;;;6272348;22;20058;-68
2023/05/15 04:35:58;;;;;;;38.60;21.33;;;11.60;99.90;;;;;;6244990;22;20024;-69
2023/05/15 04:38:24;;;;;;;40.88;21.75;;;11.60;99.90;;;;;;6271894;22;20099;-68
2023/05/15 04:40:50;;;;;;;36.20;20.55;;;11.70;99.90;;;;;;6244812;22;20069;-68
2023/05/15 04:43:15;;;;;;;36.55;19.77;;;11.70;99.90;;;;;;6244877;22;20020;-68
2023/05/15 04:45:41;;;;;;;31.73;19.73;;;11.70;99.90;;;;;;6244370;22;20015;-68
2023/05/15 04:48:07;;;;;;;31.02;18.30;;;11.70;99.90;;;;;;6272009;22;20451;-68
2023/05/15 04:50:32;;;;;;;33.42;19.23;;;11.70;99.90;;;;;;6244411;22;20027;-68
2023/05/15 04:52:58;;;;;;;33.03;18.98;;;11.70;99.90;;;;;;6272826;22;20027;-82
2023/05/15 04:55:24;;;;;;;31.77;20.17;;;11.70;99.90;;;;;;6274022;22;20012;-83
2023/05/15 04:57:50;;;;;;;36.58;20.70;;;11.70;99.90;;;;;;6246140;22;20099;-83
2023/05/15 05:00:16;;;;;;;30.65;17.88;;;11.70;99.90;;;;;;6273351;22;20026;-83
2023/05/15 05:02:44;;;;;;;35.83;19.13;;;11.60;99.90;;;;;;6246432;22;20446;-83
2023/05/15 05:05:10;;;;;;;32.95;18.58;;;11.60;99.90;;;;;;6245943;22;20050;-82
2023/05/15 05:07:36;;;;;;;36.63;20.33;;;11.60;99.90;;;;;;6246259;22;20333;-82
2023/05/15 05:10:04;;;;;;;34.33;19.42;;;11.50;99.90;;;;;;6273663;22;20115;-83
2023/05/15 05:12:29;;;;;;;32.65;19.25;;;11.50;99.90;;;;;;6246216;22;20047;-76
2023/05/15 05:14:55;;;;;;;37.42;21.77;;;11.50;99.90;;;;;;6245349;22;20522;-83
2023/05/15 05:17:21;;;;;;;33.50;18.42;;;11.60;99.90;;;;;;6246065;22;20085;-82
2023/05/15 05:19:47;;;;;;;36.47;20.30;;;11.50;99.90;;;;;;6273530;22;20023;-83
2023/05/15 05:22:12;;;;;;;38.13;20.55;;;11.50;99.90;;;;;;6273183;22;20350;-82
2023/05/15 05:24:38;;;;;;;38.50;21.10;;;11.50;99.90;;;;;;6273480;22;20073;-83
2023/05/15 05:27:04;;;;;;;35.63;18.80;;;11.50;99.90;;;;;;6246139;22;20020;-83
2023/05/15 05:29:30;;;;;;;42.85;21.65;;;11.50;99.90;;;;;;6245486;22;20015;-82
2023/05/15 05:31:56;;;;;;;39.15;20.73;;;11.50;99.90;;;;;;6272394;22;20093;-68
2023/05/15 05:34:22;;;;;;;41.47;20.52;;;11.50;99.90;;;;;;6271760;22;20115;-68
2023/05/15 05:36:48;;;;;;;39.67;21.45;;;11.50;99.90;;;;;;6243721;22;20522;-68
2023/05/15 05:39:15;;;;;;;41.78;21.02;;;11.40;99.90;;;;;;6271174;22;20023;-68
2023/05/15 05:41:41;;;;;;;35.33;19.15;;;11.40;99.90;;;;;;6271209;22;20020;-68
2023/05/15 05:44:07;;;;;;;38.65;20.00;;;11.40;99.90;;;;;;6271054;22;20134;-68
2023/05/15 05:46:33;;;;;;;35.10;19.25;;;11.30;99.90;;;;;;6244113;22;20070;-68
2023/05/15 05:48:59;;;;;;;35.33;20.50;;;11.30;99.90;;;;;;6271323;22;20051;-68
2023/05/15 05:51:25;;;;;;;38.85;20.45;;;11.20;99.90;;;;;;6244024;22;20043;-68
2023/05/15 05:53:50;;;;;;;38.08;20.08;;;11.30;99.90;;;;;;6244027;22;20023;-68
2023/05/15 05:56:16;;;;;;;40.72;19.48;;;11.30;99.90;;;;;;6244525;22;20015;-68
2023/05/15 05:58:42;;;;;;;38.53;18.38;;;11.40;99.90;;;;;;6271156;22;20309;-68
2023/05/15 06:01:08;;;;;;;38.22;20.10;;;11.40;99.90;;;;;;6271462;22;20047;-68
2023/05/15 06:03:34;;;;;;;38.92;19.10;;;11.40;99.90;;;;;;6271343;22;20069;-68
2023/05/15 06:05:59;;;;;;;40.65;20.80;;;11.40;99.90;;;;;;6269974;22;20015;-68
2023/05/15 06:08:25;;;;;;;36.10;18.33;;;11.40;99.90;;;;;;6273125;22;20024;-69
2023/05/15 06:10:51;;;;;;;34.38;17.90;;;11.40;99.90;;;;;;6245518;22;20050;-68
2023/05/15 06:13:17;;;;;;;35.17;18.80;;;11.50;99.90;;;;;;6244906;22;20023;-67
2023/05/15 06:15:44;;;;;;;33.83;19.15;;;11.50;99.90;;;;;;6244958;22;20039;-68
2023/05/15 06:18:10;;;;;;;40.42;20.00;;;11.50;99.90;;;;;;6271843;22;20018;-68
2023/05/15 06:20:37;;;;;;;36.28;19.23;;;11.50;99.90;;;;;;6271756;22;20016;-67
2023/05/15 06:23:02;;;;;;;34.38;18.73;;;11.40;99.90;;;;;;6272549;22;20131;-67
2023/05/15 06:25:28;;;;;;;36.97;19.85;;;11.40;99.90;;;;;;6273353;22;20020;-67
2023/05/15 06:27:54;;;;;;;34.45;18.73;;;11.30;99.90;;;;;;6245568;22;20015;-68
2023/05/15 06:30:20;;;;;;;34.83;18.77;;;11.30;99.90;;;;;;6273167;22;20050;-68
2023/05/15 06:32:46;;;;;;;32.45;18.58;;;11.30;99.90;;;;;;6273310;22;20011;-68
2023/05/15 06:35:11;;;;;;;33.25;18.35;;;11.20;99.90;;;;;;6246277;22;20023;-68
2023/05/15 06:37:37;;;;;;;32.47;18.58;;;11.40;99.90;;;;;;6273071;22;20015;-68
2023/05/15 06:40:04;;;;;;;33.20;18.38;;;11.50;99.90;;;;;;6273702;22;20047;-68
2023/05/15 06:42:30;;;;;;;31.65;18.98;;;11.50;99.90;;;;;;6244896;22;20019;-67
2023/05/15 06:44:56;;;;;;;33.17;17.92;;;11.60;99.90;;;;;;6273680;22;20016;-68
2023/05/15 06:47:21;;;;;;;29.90;17.98;;;11.60;99.90;;;;;;6273148;22;20024;-68
2023/05/15 06:49:47;;;;;;;31.25;17.60;;;11.70;99.90;;;;;;6275086;22;20110;-68
2023/05/15 06:52:13;;;;;;;30.05;17.98;;;11.80;99.90;;;;;;6275246;22;20154;-68
2023/05/15 06:54:40;;;;;;;32.92;18.23;;;11.90;99.90;;;;;;6275324;22;20467;-68
2023/05/15 06:57:06;;;;;;;29.88;17.83;;;11.90;99.90;;;;;;6274812;22;20095;-68
2023/05/15 06:59:34;;;;;;;30.85;17.27;;;12.00;99.90;;;;;;6275867;22;20051;-68
2023/05/15 07:02:00;;;;;;;30.88;17.90;;;12.00;99.90;;;;;;6247408;22;20347;-68
2023/05/15 07:04:26;;;;;;;32.53;18.75;;;12.20;99.90;;;;;;6275111;22;20015;-68
2023/05/15 07:06:52;;;;;;;32.85;18.40;;;12.50;99.90;;;;;;6275498;22;20047;-68
2023/05/15 07:09:17;;;;;;;33.40;18.33;;;12.60;99.90;;;;;;6274988;22;20020;-67
2023/05/15 07:11:43;;;;;;;31.00;17.85;;;12.70;99.90;;;;;;6273941;22;20058;-68
2023/05/15 07:14:09;;;;;;;32.80;17.70;;;12.90;99.90;;;;;;6272503;22;20034;-68
2023/05/15 07:16:35;;;;;;;26.67;16.17;;;12.90;99.90;;;;;;6272966;22;20020;-68
2023/05/15 07:19:01;;;;;;;26.50;16.17;;;13.10;99.90;;;;;;6273470;22;20055;-68
2023/05/15 07:21:26;;;;;;;29.48;15.93;;;13.20;99.90;;;;;;6273473;22;20335;-69
2023/05/15 07:23:52;;;;;;;26.60;15.85;;;13.30;99.90;;;;;;6245824;22;20110;-68
2023/05/15 07:26:18;;;;;;;26.13;15.70;;;13.40;99.90;;;;;;6273402;22;20062;-68
2023/05/15 07:28:43;;;;;;;25.88;15.45;;;13.50;99.90;;;;;;6273049;22;20023;-67
2023/05/15 07:31:09;;;;;;;20.70;13.80;;;13.60;99.90;;;;;;6272379;22;20016;-67
2023/05/15 07:33:35;;;;;;;20.85;13.32;;;13.80;99.90;;;;;;6241145;22;20023;-67
2023/05/15 07:36:00;;;;;;;23.15;13.35;;;13.80;99.90;;;;;;6217990;22;20019;-67
2023/05/15 07:38:26;;;;;;;28.35;15.10;;;13.80;99.90;;;;;;6271076;22;20027;-68
2023/05/15 07:40:52;;;;;;;21.52;13.65;;;13.90;99.90;;;;;;6270992;22;20047;-67
2023/05/15 07:43:18;;;;;;;22.70;13.88;;;14.10;99.90;;;;;;6243868;22;20023;-68
2023/05/15 07:45:44;;;;;;;21.83;14.20;;;14.10;99.90;;;;;;6271320;22;20027;-69
2023/05/15 07:48:17;;;;;;;19.85;12.75;;;14.20;99.90;;;;;;6271575;22;20024;-69
2023/05/15 07:50:45;;;;;;;20.13;12.85;;;14.30;99.90;;;;;;6243638;22;20054;-69
2023/05/15 07:53:11;;;;;;;22.58;12.82;;;14.50;99.90;;;;;;6271882;22;20022;-69
2023/05/15 07:55:37;;;;;;;20.55;13.80;;;14.60;99.90;;;;;;6272139;22;20016;-69
2023/05/15 07:58:03;;;;;;;19.83;12.52;;;14.60;99.90;;;;;;6244226;22;20057;-70
2023/05/15 08:00:28;;;;;;;21.13;13.65;;;14.70;99.90;;;;;;6271127;22;20050;-69
2023/05/15 08:02:54;;;;;;;18.50;12.45;;;14.80;99.90;;;;;;6244441;22;20027;-70
2023/05/15 08:05:20;;;;;;;19.25;12.00;;;14.80;99.90;;;;;;6271437;22;20020;-71
2023/05/15 08:07:45;;;;;;;21.92;12.57;;;15.00;99.90;;;;;;6217633;22;20023;-68
2023/05/15 08:10:11;;;;;;;20.48;12.98;;;15.10;99.90;;;;;;6270866;22;20085;-69
2023/05/15 08:12:37;;;;;;;18.33;12.13;;;15.00;99.90;;;;;;6244582;22;20329;-69
2023/05/15 08:15:03;;;;;;;19.42;12.35;;;15.00;99.90;;;;;;6243871;22;20062;-69
2023/05/15 08:17:28;;;;;;;18.23;12.38;;;15.20;99.90;;;;;;6270790;22;20062;-70
2023/05/15 08:19:54;;;;;;;16.27;11.65;;;15.20;99.90;;;;;;6244815;22;20020;-69
2023/05/15 08:22:20;;;;;;;17.60;12.35;;;15.30;99.90;;;;;;6269691;22;20023;-62
2023/05/15 08:24:46;;;;;;;17.52;11.45;;;15.40;99.90;;;;;;6243546;22;20022;-62
2023/05/15 08:27:12;;;;;;;15.25;10.88;;;15.50;99.90;;;;;;6271978;22;20019;-63
2023/05/15 08:29:38;;;;;;;17.35;10.73;;;15.60;99.90;;;;;;6244610;22;20059;-63
2023/05/15 08:32:05;;;;;;;17.55;11.45;;;15.80;99.90;;;;;;6271880;22;20073;-63
2023/05/15 08:34:31;;;;;;;20.42;11.90;;;15.80;99.90;;;;;;6271460;22;20019;-62
2023/05/15 08:36:57;;;;;;;14.73;10.80;;;15.80;99.90;;;;;;6270926;22;20012;-63
2023/05/15 08:39:23;;;;;;;16.67;11.38;;;15.80;99.90;;;;;;6271638;22;20016;-62
2023/05/15 08:42:01;;;;;;;18.73;11.77;;;15.90;99.90;;;;;;6271366;22;20031;-62
2023/05/15 08:44:26;;;;;;;20.20;10.75;;;15.90;99.90;;;;;;6272387;22;20012;-69
2023/05/15 08:46:53;;;;;;;16.55;11.20;;;16.10;99.90;;;;;;6244550;22;20509;-70
2023/05/15 08:49:36;;;;;;;15.93;10.95;;;16.20;99.90;;;;;;6272203;22;20054;-70
2023/05/15 08:52:03;;;;;;;13.45;9.95;;;16.20;99.90;;;;;;6268960;22;20024;-69
2023/05/15 08:54:29;;;;;;;17.08;10.80;;;16.30;99.90;;;;;;6240371;22;20022;-69
2023/05/15 08:56:56;;;;;;;14.55;10.32;;;16.40;99.90;;;;;;6270533;22;20019;-69
2023/05/15 08:59:21;;;;;;;20.63;11.38;;;16.50;99.90;;;;;;6271227;22;20027;-69
2023/05/15 09:01:48;;;;;;;16.38;10.65;;;16.50;99.90;;;;;;6243549;22;20024;-69
2023/05/15 09:04:14;;;;;;;15.82;10.55;;;16.60;99.90;;;;;;6243890;22;20079;-68
2023/05/15 09:06:42;;;;;;;14.65;10.45;;;16.70;99.90;;;;;;6242916;22;20038;-68
2023/05/15 09:09:12;;;;;;;13.75;10.02;;;16.70;99.90;;;;;;6271148;22;20019;-68
2023/05/15 09:11:40;;;;;;;17.80;11.30;;;16.80;99.90;;;;;;6269845;22;20035;-68
2023/05/15 09:14:08;;;;;;;13.45;10.75;;;16.90;99.90;;;;;;6244051;22;20034;-68
2023/05/15 09:16:33;;;;;;;18.48;10.70;;;17.00;99.90;;;;;;6271733;22;20081;-68
2023/05/15 09:19:00;;;;;;;18.38;10.82;;;17.00;99.90;;;;;;6271848;22;20571;-65
2023/05/15 09:21:28;;;;;;;17.25;10.55;;;16.90;99.90;;;;;;6271318;22;20091;-64
2023/05/15 09:24:13;;;;;;;15.57;9.85;;;16.90;99.90;;;;;;6271163;22;20024;-65
2023/05/15 09:26:40;;;;;;;15.60;10.27;;;17.10;99.90;;;;;;6271842;22;20043;-64
2023/05/15 09:29:06;;;;;;;14.77;10.68;;;17.10;99.90;;;;;;6270778;22;20024;-64
2023/05/15 09:31:32;;;;;;;13.77;10.13;;;17.20;99.90;;;;;;6271379;22;20092;-64
2023/05/15 09:34:04;;;;;;;13.95;9.63;;;17.20;99.90;;;;;;6271298;22;20026;-69
2023/05/15 09:36:31;;;;;;;15.45;10.65;;;17.30;99.90;;;;;;6270935;22;20103;-69
2023/05/15 09:38:59;;;;;;;14.60;10.93;;;17.30;99.90;;;;;;6243506;22;20379;-68
2023/05/15 09:41:26;;;;;;;14.93;9.85;;;17.30;99.90;;;;;;6271744;22;20019;-68
2023/05/15 09:43:55;;;;;;;13.85;9.18;;;17.30;99.90;;;;;;6271652;22;20019;-68
2023/05/15 09:46:22;;;;;;;13.48;9.95;;;17.60;99.90;;;;;;6271712;22;20027;-68
2023/05/15 09:48:48;;;;;;;16.20;9.40;;;17.60;99.90;;;;;;6243971;22;20100;-68
2023/05/15 09:51:19;;;;;;;12.15;9.23;;;17.70;99.90;;;;;;6271118;22;20020;-68
2023/05/15 09:53:52;;;;;;;13.57;9.38;;;17.60;99.90;;;;;;6243315;22;20019;-69
2023/05/15 09:56:18;;;;;;;15.18;10.05;;;17.50;99.90;;;;;;6244774;22;20456;-68
2023/05/15 09:58:57;;;;;;;12.57;8.82;;;17.60;99.90;;;;;;6271422;22;20468;-68
2023/05/15 10:01:24;;;;;;;13.38;9.25;;;17.70;99.90;;;;;;6271673;22;20347;-68
2023/05/15 10:04:00;;;;;;;15.73;10.45;;;17.90;99.90;;;;;;6270307;22;20069;-69
2023/05/15 10:06:33;;;;;;;14.35;10.75;;;17.80;99.90;;;;;;6272070;22;20020;-68
2023/05/15 10:09:00;;;;;;;;;;;17.70;99.90;;;;;;6272490;22;20020;-69
2023/05/15 10:11:26;;;;;;;15.27;10.02;;;17.90;99.90;;;;;;6271499;22;20004;-68
2023/05/15 10:13:53;;;;;;;13.90;9.73;;;18.00;99.90;;;;;;6271972;22;20016;-68
2023/05/15 10:16:21;;;;;;;13.48;9.80;;;18.10;99.90;;;;;;6271196;22;20030;-69
2023/05/15 10:18:49;;;;;;;12.18;9.23;;;18.20;99.90;;;;;;6244251;22;20058;-68
2023/05/15 10:21:17;;;;;;;17.77;9.82;;;18.30;99.90;;;;;;6271096;22;20054;-68
2023/05/15 10:23:44;;;;;;;14.93;10.70;;;18.30;99.90;;;;;;6271297;22;20022;-68
2023/05/15 10:26:28;;;;;;;15.35;9.30;;;18.50;99.90;;;;;;6271780;22;20114;-70
2023/05/15 10:28:55;;;;;;;14.45;9.93;;;18.40;99.90;;;;;;6247479;22;20089;-68
2023/05/15 10:31:22;;;;;;;14.18;9.45;;;18.40;99.90;;;;;;6271338;22;20035;-75
2023/05/15 10:33:50;;;;;;;12.55;9.02;;;18.60;99.90;;;;;;6271206;22;20032;-68
2023/05/15 10:36:16;;;;;;;11.23;8.20;;;18.70;99.90;;;;;;6272068;22;20023;-79
2023/05/15 10:38:43;;;;;;;12.73;8.10;;;18.80;99.90;;;;;;6244399;22;20104;-68
2023/05/15 10:41:11;;;;;;;11.05;6.75;;;18.80;99.90;;;;;;6244603;22;20025;-68
2023/05/15 10:43:37;;;;;;;11.48;6.22;;;18.70;99.90;;;;;;6270794;22;20023;-69
2023/05/15 10:46:04;;;;;;;6.90;6.13;;;18.80;99.90;;;;;;6271271;22;20023;-68
2023/05/15 10:48:31;;;;;;;8.15;5.90;;;18.90;99.90;;;;;;6271121;22;20016;-68
2023/05/15 10:50:59;;;;;;;10.23;6.75;;;18.80;99.90;;;;;;6271376;22;20018;-68
2023/05/15 10:53:25;;;;;;;12.02;8.02;;;18.80;99.90;;;;;;6271535;22;20433;-68
2023/05/15 10:55:51;;;;;;;13.70;8.57;;;19.00;99.90;;;;;;6271645;22;20467;-69
2023/05/15 10:58:20;;;;;;;10.75;8.20;;;18.80;99.90;;;;;;6271672;22;20024;-82
2023/05/15 11:00:46;;;;;;;10.30;8.68;;;18.80;99.90;;;;;;6245509;22;20024;-81
2023/05/15 11:03:15;;;;;;;13.27;9.18;;;18.90;99.90;;;;;;6245148;22;20676;-82
2023/05/15 11:06:10;;;;;;;13.18;10.05;;;19.00;99.90;;;;;;6245199;22;20051;-82
2023/05/15 11:08:37;;;;;;;12.70;9.68;;;19.10;99.90;;;;;;6245370;22;20032;-81
2023/05/15 11:11:03;;;;;;;13.15;10.25;;;19.20;99.90;;;;;;6245405;22;20027;-81
2023/05/15 11:14:06;;;;;;;13.13;10.30;;;19.00;99.90;;;;;;6272590;22;20026;-82
2023/05/15 11:16:52;;;;;;;12.82;8.98;;;19.10;99.90;;;;;;6244985;22;20351;-81
2023/05/15 11:19:24;;;;;;;14.27;9.73;;;19.00;99.90;;;;;;6272255;22;20023;-82
2023/05/15 11:21:56;;;;;;;14.95;10.63;;;19.10;99.90;;;;;;6244563;22;20074;-81
2023/05/15 11:24:31;;;;;;;15.60;10.73;;;19.40;99.90;;;;;;6245277;22;20024;-80
2023/05/15 11:27:01;;;;;;;12.45;9.50;;;19.40;99.90;;;;;;6272601;22;20015;-81
2023/05/15 11:29:26;;;;;;;11.35;9.27;;;19.40;99.90;;;;;;6272695;22;20016;-81
2023/05/15 11:31:52;;;;;;;14.82;10.10;;;19.50;99.90;;;;;;6244580;22;20031;-80
2023/05/15 11:34:39;;;;;;;13.57;9.27;;;19.50;99.90;;;;;;6245108;22;20519;-82
2023/05/15 11:37:15;;;;;;;12.95;9.43;;;19.50;99.90;;;;;;6273117;22;20348;-68
2023/05/15 11:39:42;;;;;;;13.05;9.40;;;19.50;99.90;;;;;;6245642;22;20054;-68
2023/05/15 11:42:12;;;;;;;13.30;9.50;;;19.70;99.90;;;;;;6273088;22;20020;-68
2023/05/15 11:44:39;;;;;;;16.17;9.50;;;19.50;99.90;;;;;;6272771;22;20099;-68
2023/05/15 11:47:09;;;;;;;11.43;8.63;;;19.40;99.90;;;;;;6272497;22;20020;-68
2023/05/15 11:49:37;;;;;;;16.40;9.18;;;19.40;99.90;;;;;;6272748;22;20094;-68
2023/05/15 11:52:03;;;;;;;11.93;8.93;;;19.50;99.90;;;;;;6272996;22;20011;-68
2023/05/15 11:54:29;;;;;;;10.57;8.15;;;19.50;99.90;;;;;;6274081;22;20026;-81
2023/05/15 11:56:57;;;;;;;11.90;7.97;;;19.60;99.90;;;;;;6246939;22;20007;-81
2023/05/15 11:59:26;;;;;;;11.63;8.43;;;19.70;99.90;;;;;;6246352;22;20028;-81
2023/05/15 12:01:51;;;;;;;11.13;8.35;;;19.70;99.90;;;;;;6274102;22;20020;-79
2023/05/15 12:04:18;;;;;;;13.77;9.30;;;19.70;99.90;;;;;;6246714;22;20027;-80
2023/05/15 12:06:46;;;;;;;12.25;8.45;;;20.00;99.90;;;;;;6247211;22;20019;-81
2023/05/15 12:09:16;;;;;;;11.90;8.57;;;19.90;99.90;;;;;;6274493;22;20317;-80
2023/05/15 12:11:51;;;;;;;10.35;7.90;;;19.60;99.90;;;;;;6274228;22;20436;-82
2023/05/15 12:14:25;;;;;;;11.00;7.82;;;19.80;99.90;;;;;;6246821;22;20024;-81
2023/05/15 12:16:52;;;;;;;10.15;7.70;;;19.80;99.90;;;;;;6274015;22;20078;-81
2023/05/15 12:19:17;;;;;;;10.60;8.40;;;19.90;99.90;;;;;;6247075;22;20034;-82
2023/05/15 12:21:46;;;;;;;11.00;7.20;;;20.00;99.90;;;;;;6273755;22;20099;-81
2023/05/15 12:24:12;;;;;;;11.00;7.85;;;20.30;99.90;;;;;;6246237;22;20320;-84
2023/05/15 12:26:38;;;;;;;12.35;7.22;;;20.40;99.90;;;;;;6246069;22;20105;-79
2023/05/15 12:29:05;;;;;;;8.15;6.85;;;20.40;99.90;;;;;;6273882;22;20130;-78
2023/05/15 12:31:33;;;;;;;8.70;7.75;;;20.40;99.90;;;;;;6273056;22;20166;-68
2023/05/15 12:33:59;;;;;;;10.32;7.43;;;20.50;99.90;;;;;;6272376;22;20138;-69